Time;durP1;ratioP1;P1;durP2;ratioP2;P2;SDS_P1;SDS_P2;PMS_P1;PMS_P2;Temp;Humidity;BMP_temperature;BMP_pressure;BME280_temperature;BME280_humidity;BME280_pressure;Samples;Min_cycle;Max_cycle;Signal;HPM_P1;HPM_P2
2022/06/21 00:00:40;;;;;;;12.60;5.27;;;;;;;18.99;100.00;101630.78;4979489;28;20260;-53
2022/06/21 00:03:13;;;;;;;16.98;5.63;;;;;;;19.13;100.00;101633.25;4973352;28;20295;-52
2022/06/21 00:05:44;;;;;;;10.53;4.63;;;;;;;18.30;100.00;101631.91;4977092;28;20054;-56
2022/06/21 00:08:17;;;;;;;13.60;4.80;;;;;;;18.67;100.00;101628.28;4977052;28;20264;-54
2022/06/21 00:10:44;;;;;;;17.53;6.10;;;;;;;18.33;100.00;101628.75;4978285;28;20268;-50
2022/06/21 00:13:19;;;;;;;12.15;4.45;;;;;;;18.43;100.00;101621.97;4980424;28;20265;-51
2022/06/21 00:15:46;;;;;;;12.30;4.93;;;;;;;18.40;100.00;101630.56;4977319;28;20027;-50
2022/06/21 00:18:15;;;;;;;16.17;5.10;;;;;;;18.30;100.00;101625.69;4978322;28;20268;-51
2022/06/21 00:20:41;;;;;;;17.63;5.73;;;;;;;18.22;100.00;101626.81;4979453;28;20272;-53
2022/06/21 00:23:29;;;;;;;9.60;5.03;;;;;;;17.92;100.00;101617.56;4978473;28;20273;-53
2022/06/21 00:25:57;;;;;;;13.03;5.03;;;;;;;17.90;100.00;101627.78;4979216;28;20045;-51
2022/06/21 00:28:24;;;;;;;14.27;4.80;;;;;;;18.36;100.00;101624.78;4976697;28;20337;-49
2022/06/21 00:30:53;;;;;;;9.93;5.70;;;;;;;18.80;100.00;101621.03;4977713;28;20269;-50
2022/06/21 00:33:22;;;;;;;11.33;5.03;;;;;;;18.40;100.00;101625.16;4974521;28;20286;-53
2022/06/21 00:35:49;;;;;;;14.80;5.33;;;;;;;18.61;100.00;101612.97;4975221;28;20276;-48
2022/06/21 00:38:18;;;;;;;11.40;4.83;;;;;;;18.46;100.00;101616.09;4977511;28;20278;-53
2022/06/21 00:40:44;;;;;;;15.63;4.93;;;;;;;18.34;100.00;101610.63;4974552;28;20277;-53
2022/06/21 00:43:20;;;;;;;11.60;4.60;;;;;;;17.88;100.00;101610.16;4974602;28;20300;-52
2022/06/21 00:45:49;;;;;;;12.45;6.32;;;;;;;18.59;100.00;101610.50;4976590;28;20054;-50
2022/06/21 00:48:36;;;;;;;12.97;5.70;;;;;;;18.58;100.00;101613.44;4976717;28;20038;-48
2022/06/21 00:51:18;;;;;;;12.70;5.17;;;;;;;18.33;100.00;101611.69;4977433;28;20843;-52
2022/06/21 00:53:50;;;;;;;15.80;5.03;;;;;;;18.43;100.00;101609.25;4979553;28;20301;-54
2022/06/21 00:56:18;;;;;;;10.87;4.73;;;;;;;17.57;100.00;101609.22;4976974;28;20270;-51
2022/06/21 00:58:44;;;;;;;17.93;5.47;;;;;;;18.11;100.00;101614.06;4971719;28;20266;-53
2022/06/21 01:01:23;;;;;;;14.53;5.70;;;;;;;17.98;100.00;101612.28;4975420;28;20316;-51
2022/06/21 01:04:01;;;;;;;11.43;5.90;;;;;;;18.12;100.00;101604.91;4977232;28;20053;-51
2022/06/21 01:06:32;;;;;;;11.57;5.73;;;;;;;18.23;100.00;101606.81;4996654;28;20273;-49
2022/06/21 01:09:06;;;;;;;22.60;6.27;;;;;;;18.19;100.00;101606.44;4978258;28;20270;-49
2022/06/21 01:11:45;;;;;;;11.50;5.67;;;;;;;18.21;100.00;101606.22;4976867;28;20303;-51
2022/06/21 01:14:14;;;;;;;21.00;6.80;;;;;;;18.26;100.00;101600.13;4978217;28;20281;-47
2022/06/21 01:16:40;;;;;;;20.37;6.80;;;;;;;18.04;100.00;101596.00;4974245;28;20277;-47
2022/06/21 01:19:22;;;;;;;14.20;6.18;;;;;;;18.46;100.00;101597.16;4974375;28;20269;-48
2022/06/21 01:21:53;;;;;;;10.83;5.53;;;;;;;18.58;100.00;101597.19;4974952;28;20050;-49
2022/06/21 01:24:33;;;;;;;16.10;6.63;;;;;;;18.14;100.00;101595.47;4980070;28;20286;-50
2022/06/21 01:27:03;;;;;;;12.23;5.67;;;;;;;17.95;100.00;101593.81;4973577;28;20296;-47
2022/06/21 01:29:31;;;;;;;13.57;6.40;;;;;;;17.17;100.00;101580.69;4978585;28;20269;-53
2022/06/21 01:32:00;;;;;;;11.47;5.70;;;;;;;17.49;100.00;101573.31;4979421;28;20288;-51
2022/06/21 01:34:27;;;;;;;16.57;5.93;;;;;;;18.37;100.00;101572.28;4974789;28;20288;-54
2022/06/21 01:36:55;;;;;;;;;;;;;;;18.06;100.00;101579.56;4993995;28;20284;-50
2022/06/21 01:39:26;;;;;;;15.70;5.70;;;;;;;17.64;100.00;101588.31;4975315;28;19923;-49
2022/06/21 01:42:01;;;;;;;14.70;5.87;;;;;;;17.40;100.00;101592.75;4979383;28;20295;-49
2022/06/21 01:44:35;;;;;;;13.13;6.53;;;;;;;17.28;100.00;101593.47;4978818;28;20361;-49
2022/06/21 01:47:04;;;;;;;15.67;6.77;;;;;;;17.29;100.00;101594.28;4974413;28;20261;-50
2022/06/21 01:49:33;;;;;;;21.37;6.77;;;;;;;17.23;100.00;101593.31;4979180;28;20263;-51
2022/06/21 01:52:09;;;;;;;11.67;6.20;;;;;;;17.40;100.00;101598.16;4982511;28;20273;-52
2022/06/21 01:54:39;;;;;;;15.07;6.55;;;;;;;17.25;100.00;101593.91;4980600;28;20274;-51
2022/06/21 01:57:08;;;;;;;13.10;6.50;;;;;;;17.20;100.00;101593.75;4969675;28;20067;-51
2022/06/21 01:59:38;;;;;;;28.33;7.57;;;;;;;17.31;100.00;101590.34;4979216;28;20345;-55
2022/06/21 02:02:10;;;;;;;12.47;6.57;;;;;;;17.34;100.00;101587.19;4970657;28;20281;-52
2022/06/21 02:04:42;;;;;;;15.43;6.20;;;;;;;16.95;100.00;101596.41;4972226;28;20278;-48
2022/06/21 02:07:13;;;;;;;11.63;6.37;;;;;;;17.10;100.00;101593.44;4969594;28;20269;-53
2022/06/21 02:09:46;;;;;;;17.03;6.50;;;;;;;17.20;100.00;101594.59;4974309;28;20345;-51
2022/06/21 02:12:13;;;;;;;13.03;7.27;;;;;;;17.05;100.00;101594.91;4975522;28;20284;-49
2022/06/21 02:14:45;;;;;;;21.37;6.93;;;;;;;17.11;100.00;101597.78;4975093;28;20277;-51
2022/06/21 02:17:26;;;;;;;12.20;6.87;;;;;;;16.99;100.00;101600.38;4977391;28;20278;-51
2022/06/21 02:20:10;;;;;;;13.30;7.23;;;;;;;16.99;100.00;101606.59;4978279;28;20285;-54
2022/06/21 02:22:35;;;;;;;13.70;6.47;;;;;;;16.82;100.00;101598.16;4975687;28;20278;-51
2022/06/21 02:25:02;;;;;;;10.65;6.10;;;;;;;16.71;100.00;101610.50;4977872;28;20963;-52
2022/06/21 02:27:32;;;;;;;13.30;6.53;;;;;;;16.89;100.00;101603.53;4979788;28;20066;-50
2022/06/21 02:30:00;;;;;;;16.43;7.03;;;;;;;16.58;100.00;101599.78;4973161;28;20274;-48
2022/06/21 02:32:30;;;;;;;16.97;6.77;;;;;;;16.68;100.00;101605.53;4977584;28;20301;-53
2022/06/21 02:35:03;;;;;;;14.50;6.90;;;;;;;16.75;100.00;101602.81;4970953;28;20275;-50
2022/06/21 02:37:30;;;;;;;15.27;7.47;;;;;;;16.78;100.00;101594.25;4972131;28;20321;-55
2022/06/21 02:39:58;;;;;;;17.50;6.30;;;;;;;17.29;100.00;101583.47;4970805;28;20262;-53
2022/06/21 02:42:30;;;;;;;14.87;6.63;;;;;;;17.29;100.00;101580.78;4973963;28;20265;-50
2022/06/21 02:45:01;;;;;;;18.53;7.00;;;;;;;16.59;100.00;101571.72;4970677;28;20269;-53
2022/06/21 02:47:35;;;;;;;15.33;7.40;;;;;;;16.56;100.00;101566.75;4977204;28;20280;-50
2022/06/21 02:50:13;;;;;;;19.00;7.23;;;;;;;17.58;100.00;101554.91;4973067;28;20276;-53
2022/06/21 02:52:41;;;;;;;17.10;7.90;;;;;;;17.80;100.00;101543.63;4968532;28;20304;-52
2022/06/21 02:55:22;;;;;;;13.27;7.53;;;;;;;16.65;100.00;101543.88;4971535;28;20341;-53
2022/06/21 02:57:54;;;;;;;17.67;6.80;;;;;;;17.18;100.00;101547.19;4977924;28;20272;-50
2022/06/21 03:00:20;;;;;;;16.17;7.23;;;;;;;17.55;100.00;101555.38;4979479;28;20300;-48
2022/06/21 03:02:47;;;;;;;18.45;7.88;;;;;;;17.18;100.00;101549.91;4976337;28;20345;-52
2022/06/21 03:05:19;;;;;;;12.98;7.55;;;;;;;16.90;100.00;101538.47;4976222;28;20044;-49
2022/06/21 03:07:53;;;;;;;16.40;6.73;;;;;;;17.28;100.00;101527.78;4979280;28;20107;-50
2022/06/21 03:10:22;;;;;;;16.00;7.83;;;;;;;16.07;100.00;101532.16;4973538;28;20277;-47
2022/06/21 03:12:52;;;;;;;13.20;7.33;;;;;;;16.42;100.00;101539.88;4974223;28;20280;-52
2022/06/21 03:15:18;;;;;;;16.90;8.43;;;;;;;16.60;100.00;101536.41;4974321;28;20293;-50
2022/06/21 03:17:54;;;;;;;13.90;7.03;;;;;;;16.16;100.00;101536.28;4977770;28;20295;-50
2022/06/21 03:20:20;;;;;;;20.55;7.88;;;;;;;16.23;100.00;101535.41;4970741;28;20035;-50
2022/06/21 03:22:48;;;;;;;20.20;8.95;;;;;;;16.23;100.00;101543.50;4972043;28;20031;-52
2022/06/21 03:25:24;;;;;;;19.03;9.00;;;;;;;16.52;100.00;101538.56;4971736;28;20058;-53
2022/06/21 03:27:52;;;;;;;23.20;8.60;;;;;;;16.23;100.00;101544.31;4971088;28;20277;-51
2022/06/21 03:30:20;;;;;;;16.37;8.43;;;;;;;16.36;100.00;101546.13;4971787;28;20341;-50
2022/06/21 03:32:47;;;;;;;19.47;9.23;;;;;;;16.36;100.00;101558.81;4976343;28;20292;-49
2022/06/21 03:35:14;;;;;;;20.13;8.43;;;;;;;16.43;100.00;101560.41;4971082;28;20295;-50
2022/06/21 03:37:42;;;;;;;29.67;16.25;;;;;;;17.58;100.00;101559.47;4976815;28;20337;-50
2022/06/21 03:42:56;;;;;;;;;;;;;;;17.63;100.00;101549.66;4975708;28;20276;-52
2022/06/21 03:45:38;;;;;;;56.17;24.83;;;;;;;17.56;100.00;101543.50;4974428;28;19922;-51
2022/06/21 03:48:15;;;;;;;24.80;11.73;;;;;;;16.90;100.00;101562.78;4973370;28;20272;-49
2022/06/21 03:50:47;;;;;;;28.60;12.60;;;;;;;17.10;100.00;101561.81;4974775;28;20273;-53
2022/06/21 03:53:19;;;;;;;28.17;14.33;;;;;;;17.34;100.00;101557.44;4973610;28;20039;-51
2022/06/21 03:56:33;;;;;;;30.67;17.00;;;;;;;16.31;100.00;101540.53;4975190;28;20268;-53
2022/06/21 03:59:35;;;;;;;33.83;15.43;;;;;;;16.30;100.00;101534.34;4963985;28;20279;-52
2022/06/21 04:02:10;;;;;;;56.43;23.60;;;;;;;16.39;100.00;101545.72;4944212;28;20275;-48
2022/06/21 04:04:44;;;;;;;72.17;35.13;;;;;;;16.76;100.00;101553.94;4966229;28;20324;-52
2022/06/21 04:07:23;;;;;;;45.77;19.33;;;;;;;16.78;100.00;101559.97;4974216;28;20287;-52
2022/06/21 04:10:36;;;;;;;18.77;8.80;;;;;;;16.72;100.00;101544.63;4969759;28;20283;-51
2022/06/21 04:13:14;;;;;;;33.90;15.93;;;;;;;16.56;100.00;101537.91;4994590;28;20273;-48
2022/06/21 04:15:50;;;;;;;35.67;15.70;;;;;;;16.86;100.00;101529.16;4970954;28;20281;-49
2022/06/21 04:18:41;;;;;;;35.03;11.50;;;;;;;16.78;100.00;101524.84;4997181;28;20282;-48
2022/06/21 04:21:10;;;;;;;24.17;7.63;;;;;;;16.60;100.00;101528.31;4988872;28;20288;-53
2022/06/21 04:23:57;;;;;;;15.70;6.03;;;;;;;16.81;100.00;101525.44;4973826;28;20270;-51
2022/06/21 04:26:28;;;;;;;15.17;5.50;;;;;;;16.74;100.00;101526.34;4974241;28;20277;-51
2022/06/21 04:29:04;;;;;;;14.87;5.80;;;;;;;16.84;100.00;101519.59;4973963;28;20289;-49
2022/06/21 04:31:39;;;;;;;12.98;6.40;;;;;;;16.82;100.00;101509.03;4990455;28;20285;-50
2022/06/21 04:34:15;;;;;;;10.70;5.93;;;;;;;17.19;100.00;101508.31;4977433;28;20033;-51
2022/06/21 04:36:50;;;;;;;13.23;5.30;;;;;;;17.03;100.00;101502.44;4977173;28;20277;-51
2022/06/21 04:39:36;;;;;;;18.27;6.23;;;;;;;16.82;100.00;101500.09;4975972;28;20274;-51
2022/06/21 04:42:11;;;;;;;16.67;5.60;;;;;;;16.80;100.00;101491.38;4980849;28;20292;-50
2022/06/21 04:44:49;;;;;;;14.63;6.60;;;;;;;16.52;100.00;101487.25;4976407;28;20313;-50
2022/06/21 04:47:30;;;;;;;16.33;6.73;;;;;;;16.95;100.00;101493.75;4976972;28;20289;-52
2022/06/21 04:50:11;;;;;;;20.27;6.70;;;;;;;17.03;100.00;101491.63;4978785;28;20277;-49
2022/06/21 04:52:46;;;;;;;12.00;5.80;;;;;;;17.04;100.00;101477.06;4976094;28;20277;-50
2022/06/21 04:55:16;;;;;;;17.60;6.57;;;;;;;17.51;100.00;101475.72;4975532;28;20361;-51
2022/06/21 04:57:45;;;;;;;13.97;6.00;;;;;;;17.35;100.00;101477.16;4973821;28;20274;-52
2022/06/21 05:00:18;;;;;;;15.03;6.60;;;;;;;17.09;100.00;101471.00;4972904;28;20316;-47
2022/06/21 05:02:48;;;;;;;21.90;7.00;;;;;;;17.21;100.00;101473.78;4972159;28;20273;-50
2022/06/21 05:05:25;;;;;;;13.53;6.13;;;;;;;17.60;100.00;101478.94;4974851;28;20286;-52
2022/06/21 05:08:19;;;;;;;16.35;7.25;;;;;;;17.26;100.00;101478.53;4973148;28;20280;-47
2022/06/21 05:10:48;;;;;;;21.23;7.87;;;;;;;17.43;100.00;101492.25;4973791;28;20055;-49
2022/06/21 05:13:24;;;;;;;15.93;7.00;;;;;;;17.29;100.00;101491.59;4975191;28;20316;-54
2022/06/21 05:15:52;;;;;;;19.50;7.53;;;;;;;17.19;100.00;101500.19;4974898;28;20266;-50
2022/06/21 05:18:24;;;;;;;17.07;7.80;;;;;;;17.13;100.00;101490.28;4970773;28;20289;-51
2022/06/21 05:20:58;;;;;;;17.13;7.87;;;;;;;17.10;100.00;101494.25;4975841;28;20270;-49
2022/06/21 05:23:25;;;;;;;21.37;6.80;;;;;;;17.05;100.00;101492.22;4976003;28;20277;-49
2022/06/21 05:25:52;;;;;;;17.27;6.82;;;;;;;16.86;100.00;101490.53;4977991;28;20320;-51
2022/06/21 05:28:29;;;;;;;15.23;5.17;;;;;;;17.91;100.00;101499.56;4976331;28;20042;-53
2022/06/21 05:31:03;;;;;;;20.00;6.73;;;;;;;18.32;100.00;101501.75;4979072;28;20276;-51
2022/06/21 05:33:39;;;;;;;13.20;4.60;;;;;;;17.51;100.00;101499.25;4975758;28;20044;-49
2022/06/21 05:36:16;;;;;;;12.45;4.65;;;;;;;17.24;100.00;101496.84;4977649;28;20262;-48
2022/06/21 05:38:55;;;;;;;17.83;5.10;;;;;;;17.27;100.00;101499.09;4970217;28;20030;-48
2022/06/21 05:41:30;;;;;;;13.23;4.20;;;;;;;17.42;100.00;101510.38;4983756;28;20054;-52
2022/06/21 05:44:34;;;;;;;17.47;6.07;;;;;;;18.16;100.00;101516.75;4971251;28;20293;-51
2022/06/21 05:47:20;;;;;;;9.07;4.17;;;;;;;18.84;100.00;101513.84;4971168;28;20265;-51
2022/06/21 05:49:47;;;;;;;16.33;5.25;;;;;;;18.36;100.00;101507.53;4970417;28;20273;-52
2022/06/21 05:52:35;;;;;;;11.25;5.22;;;;;;;18.31;100.00;101511.72;4974683;28;20062;-50
2022/06/21 05:55:07;;;;;;;13.40;5.67;;;;;;;18.79;100.00;101514.53;4976047;28;20023;-48
2022/06/21 05:57:48;;;;;;;16.73;6.23;;;;;;;18.38;100.00;101517.06;4973224;28;20284;-52
2022/06/21 06:00:22;;;;;;;15.27;6.80;;;;;;;18.24;100.00;101518.31;4970329;28;20285;-49
2022/06/21 06:02:52;;;;;;;18.27;5.73;;;;;;;18.00;100.00;101519.03;4973550;28;20346;-51
2022/06/21 06:05:23;;;;;;;14.77;5.70;;;;;;;18.06;100.00;101522.72;4978780;28;20301;-51
2022/06/21 06:07:55;;;;;;;13.30;5.63;;;;;;;18.28;100.00;101522.22;4978626;28;20336;-50
2022/06/21 06:10:23;;;;;;;11.80;4.83;;;;;;;18.37;100.00;101522.72;4970250;28;20277;-53
2022/06/21 06:12:56;;;;;;;8.37;4.83;;;;;;;18.34;100.00;101513.16;4974577;28;20279;-51
2022/06/21 06:15:41;;;;;;;13.87;4.70;;;;;;;17.80;100.00;101522.00;4968529;28;20345;-53
2022/06/21 06:18:17;;;;;;;11.87;4.27;;;;;;;18.13;100.00;101526.16;4975147;28;20276;-51
2022/06/21 06:20:49;;;;;;;12.53;4.17;;;;;;;18.11;100.00;101530.97;4973975;28;20270;-48
2022/06/21 06:23:21;;;;;;;19.87;4.70;;;;;;;18.19;100.00;101527.94;4970021;28;20282;-51
2022/06/21 06:25:49;;;;;;;13.13;3.80;;;;;;;18.08;100.00;101522.47;4970365;28;20321;-53
2022/06/21 06:28:17;;;;;;;10.47;4.00;;;;;;;18.25;100.00;101538.94;4973273;28;20288;-51
2022/06/21 06:30:49;;;;;;;10.83;3.80;;;;;;;18.56;100.00;101547.84;4974390;28;20303;-51
2022/06/21 06:33:22;;;;;;;9.93;4.00;;;;;;;18.57;100.00;101560.31;4974413;28;20289;-55
2022/06/21 06:35:48;;;;;;;11.53;3.40;;;;;;;18.67;100.00;101563.28;4971211;28;20316;-55
2022/06/21 06:38:15;;;;;;;11.43;3.50;;;;;;;18.63;100.00;101565.66;4967725;28;20272;-53
2022/06/21 06:40:46;;;;;;;8.50;3.30;;;;;;;18.55;100.00;101578.69;4971822;28;20055;-50
2022/06/21 06:43:24;;;;;;;8.00;2.90;;;;;;;18.68;100.00;101572.25;4971273;28;20273;-50
2022/06/21 06:45:50;;;;;;;14.27;3.20;;;;;;;19.00;100.00;101580.09;4971452;28;20594;-50
2022/06/21 06:48:37;;;;;;;8.82;3.30;;;;;;;18.83;100.00;101585.34;4974656;28;20353;-50
2022/06/21 06:51:22;;;;;;;;;;;;;;;18.57;100.00;101590.13;4969789;28;20081;-48
2022/06/21 06:53:54;;;;;;;7.47;3.47;;;;;;;18.71;100.00;101598.88;4970183;28;19915;-54
2022/06/21 06:56:31;;;;;;;6.67;3.83;;;;;;;19.11;100.00;101597.44;4970016;28;20284;-52
2022/06/21 06:59:03;;;;;;;10.20;3.92;;;;;;;19.12;100.00;101601.78;4972330;28;20268;-51
2022/06/21 07:01:50;;;;;;;10.90;4.30;;;;;;;19.58;100.00;101602.03;4975748;28;20031;-50
2022/06/21 07:04:18;;;;;;;12.85;4.45;;;;;;;19.62;100.00;101598.63;4971984;28;20313;-53
2022/06/21 07:06:50;;;;;;;15.70;6.40;;;;;;;19.18;100.00;101595.47;4971923;28;20054;-54
2022/06/21 07:09:26;;;;;;;15.70;5.77;;;;;;;18.99;100.00;101598.25;4971380;28;20284;-52
2022/06/21 07:12:02;;;;;;;;;;;;;;;19.43;100.00;101597.09;4978942;28;20287;-52
2022/06/21 07:14:29;;;;;;;9.87;4.37;;;;;;;19.19;100.00;101595.19;4985541;28;19914;-51
2022/06/21 07:17:03;;;;;;;17.67;6.60;;;;;;;19.74;100.00;101597.78;4971749;28;20289;-55
2022/06/21 07:19:28;;;;;;;10.07;3.90;;;;;;;19.62;100.00;101606.75;4975111;28;20273;-52
2022/06/21 07:21:54;;;;;;;12.07;3.87;;;;;;;19.85;100.00;101602.38;4966422;28;20284;-50
2022/06/21 07:24:20;;;;;;;15.23;7.63;;;;;;;19.58;100.00;101594.72;4972848;28;20040;-49
2022/06/21 07:27:01;;;;;;;31.58;13.75;;;;;;;19.20;100.00;101602.28;4976694;28;20049;-50
2022/06/21 07:29:33;;;;;;;26.03;8.23;;;;;;;19.27;100.00;101599.47;4970644;28;20107;-54
2022/06/21 07:32:05;;;;;;;13.23;5.33;;;;;;;19.73;100.00;101596.13;4976283;28;20272;-54
2022/06/21 07:34:34;;;;;;;8.10;3.80;;;;;;;20.12;100.00;101599.13;4972805;28;20274;-51
2022/06/21 07:37:11;;;;;;;11.63;5.10;;;;;;;20.00;100.00;101592.91;4973721;28;20278;-52
2022/06/21 07:39:43;;;;;;;11.45;4.28;;;;;;;20.10;100.00;101587.69;4975505;28;20292;-53
2022/06/21 07:42:23;;;;;;;13.73;3.93;;;;;;;19.98;100.00;101587.72;4980016;28;20099;-49
2022/06/21 07:44:58;;;;;;;7.47;3.33;;;;;;;20.08;100.00;101581.69;4977077;28;20288;-52
2022/06/21 07:47:34;;;;;;;16.43;4.33;;;;;;;20.12;100.00;101580.13;4976990;28;20293;-51
2022/06/21 07:50:06;;;;;;;13.40;4.25;;;;;;;20.40;100.00;101578.47;4978864;28;20304;-54
2022/06/21 07:52:38;;;;;;;8.40;4.10;;;;;;;20.40;100.00;101578.47;4980655;28;20035;-52
2022/06/21 07:55:16;;;;;;;12.50;4.07;;;;;;;20.73;100.00;101579.56;4971463;28;20311;-50
2022/06/21 07:57:54;;;;;;;18.57;4.90;;;;;;;21.10;100.00;101574.75;4976592;28;20268;-51
2022/06/21 08:00:22;;;;;;;10.53;4.70;;;;;;;20.93;100.00;101581.00;4971705;28;20337;-50
2022/06/21 08:08:40;;;;;;;11.43;4.23;;;;;;;19.82;100.00;101566.72;4975021;28;20047;-52
2022/06/21 08:11:14;;;;;;;14.93;4.50;;;;;;;19.88;100.00;101566.59;4969888;28;20031;-51
2022/06/21 08:13:40;;;;;;;14.40;6.30;;;;;;;20.42;100.00;101557.31;4976587;28;20297;-48
2022/06/21 08:16:16;;;;;;;8.85;3.20;;;;;;;21.27;100.00;101553.81;4976504;28;20271;-52
2022/06/21 08:18:47;;;;;;;14.02;4.55;;;;;;;22.03;100.00;101562.38;4971928;28;20065;-49
2022/06/21 08:21:21;;;;;;;15.83;4.57;;;;;;;20.74;100.00;101564.91;4973904;28;20027;-49
2022/06/21 08:23:55;;;;;;;14.93;5.03;;;;;;;20.69;100.00;101564.81;4972889;28;20035;-54
2022/06/21 08:26:26;;;;;;;11.03;3.27;;;;;;;20.73;100.00;101560.53;4975448;28;20110;-54
2022/06/21 08:29:07;;;;;;;13.53;3.00;;;;;;;20.96;100.00;101552.50;4975186;28;20035;-54
2022/06/21 08:31:36;;;;;;;9.73;3.60;;;;;;;20.97;100.00;101552.25;4975937;28;20030;-52
2022/06/21 08:34:23;;;;;;;7.63;3.53;;;;;;;21.11;100.00;101551.91;4974247;28;20047;-54
2022/06/21 08:36:59;;;;;;;9.07;3.35;;;;;;;20.98;100.00;101547.66;4972155;28;20098;-54
2022/06/21 08:39:40;;;;;;;7.70;3.03;;;;;;;22.69;100.00;101534.16;4993285;28;20119;-54
2022/06/21 08:42:36;;;;;;;5.37;2.33;;;;;;;21.86;100.00;101535.25;4978877;28;20035;-52
2022/06/21 08:45:42;;;;;;;6.03;2.77;;;;;;;23.12;100.00;101541.56;4975423;28;20042;-52
2022/06/21 08:48:37;;;;;;;11.13;3.70;;;;;;;22.94;100.00;101527.25;4976312;28;20035;-53
2022/06/21 08:51:31;;;;;;;6.40;2.00;;;;;;;23.36;100.00;101531.06;4975509;28;20058;-51
2022/06/21 08:54:16;;;;;;;4.93;1.70;;;;;;;23.66;100.00;101532.31;4974935;28;20023;-55
2022/06/21 08:56:55;;;;;;;5.77;1.63;;;;;;;22.59;100.00;101525.88;4974618;28;20066;-51
2022/06/21 08:59:28;;;;;;;7.77;2.70;;;;;;;22.25;100.00;101528.84;4974393;28;20039;-51
2022/06/21 09:02:13;;;;;;;6.70;2.07;;;;;;;22.31;100.00;101522.34;4969486;28;20038;-53
2022/06/21 09:04:57;;;;;;;7.30;2.23;;;;;;;22.67;100.00;101525.44;4973760;28;20034;-54
2022/06/21 09:07:57;;;;;;;12.20;2.57;;;;;;;23.16;100.00;101538.00;4973444;28;20070;-52
2022/06/21 09:10:37;;;;;;;6.87;2.60;;;;;;;23.17;100.00;101531.47;4974944;28;20061;-53
2022/06/21 09:13:20;;;;;;;23.60;12.27;;;;;;;23.51;100.00;101532.22;4972846;28;20034;-53
2022/06/21 09:16:17;;;;;;;28.93;13.67;;;;;;;24.65;100.00;101522.34;4973773;28;20035;-55
2022/06/21 09:19:04;;;;;;;16.83;6.38;;;;;;;23.31;100.00;101512.78;4975621;28;20102;-52
2022/06/21 09:21:56;;;;;;;8.93;4.57;;;;;;;22.79;100.00;101506.16;4976346;28;20049;-54
2022/06/21 09:24:36;;;;;;;10.00;3.03;;;;;;;22.95;100.00;101503.50;4971462;28;20038;-51
2022/06/21 09:27:15;;;;;;;9.43;2.10;;;;;;;23.25;100.00;101505.63;4973426;28;20027;-52
2022/06/21 09:29:52;;;;;;;9.40;3.70;;;;;;;23.37;100.00;101496.41;4972723;28;20559;-51
2022/06/21 09:32:30;;;;;;;11.70;2.77;;;;;;;23.69;100.00;101484.50;4974897;28;20071;-52
2022/06/21 09:35:40;;;;;;;11.37;2.83;;;;;;;24.02;100.00;101491.44;4979364;28;20050;-52
2022/06/21 09:38:47;;;;;;;5.70;1.70;;;;;;;24.13;100.00;101497.75;4978076;28;20055;-54
2022/06/21 09:41:33;;;;;;;6.30;2.10;;;;;;;25.53;99.10;101503.03;4976990;28;20039;-52
2022/06/21 09:44:09;;;;;;;12.67;2.57;;;;;;;24.70;100.00;101508.69;4976151;28;20094;-50
2022/06/21 09:47:09;;;;;;;11.23;2.70;;;;;;;24.63;100.00;101498.03;4974331;28;20046;-50
2022/06/21 09:49:55;;;;;;;10.40;2.63;;;;;;;24.40;100.00;101483.00;4973907;28;20047;-52
2022/06/21 09:52:42;;;;;;;6.45;2.33;;;;;;;24.28;100.00;101493.41;4974197;28;20034;-49
2022/06/21 09:55:24;;;;;;;7.65;2.83;;;;;;;24.43;100.00;101487.91;4971198;28;20024;-52
2022/06/21 09:57:55;;;;;;;6.07;2.20;;;;;;;24.83;100.00;101487.38;4969305;28;20050;-54
2022/06/21 10:00:33;;;;;;;8.10;2.77;;;;;;;25.04;100.00;101485.41;4973833;28;20045;-49
2022/06/21 10:03:09;;;;;;;6.40;2.33;;;;;;;25.29;100.00;101484.50;4970550;28;20038;-48
2022/06/21 10:05:47;;;;;;;6.47;2.23;;;;;;;26.00;97.47;101483.59;4971709;28;20043;-49
2022/06/21 10:08:27;;;;;;;4.43;1.80;;;;;;;26.52;91.16;101480.47;4977592;28;20039;-50
2022/06/21 10:11:12;;;;;;;6.63;1.67;;;;;;;26.59;87.86;101467.25;4979244;28;20046;-54
2022/06/21 10:13:50;;;;;;;5.27;1.90;;;;;;;27.11;76.32;101470.28;4973555;28;20038;-53
2022/06/21 10:17:03;;;;;;;5.00;1.87;;;;;;;27.93;71.44;101477.75;4969907;28;20047;-55
2022/06/21 10:19:47;;;;;;;12.82;6.30;;;;;;;28.95;62.55;101477.09;4970018;28;20054;-52
2022/06/21 10:22:16;;;;;;;5.70;2.33;;;;;;;29.93;57.02;101479.72;4974351;28;20038;-55
2022/06/21 10:25:19;;;;;;;7.00;1.75;;;;;;;29.99;57.20;101464.66;4973674;28;20039;-50
2022/06/21 10:28:09;;;;;;;12.32;5.65;;;;;;;29.75;58.32;101476.81;4973163;28;20065;-55
2022/06/21 10:30:59;;;;;;;6.90;2.00;;;;;;;30.25;56.66;101469.56;4973810;28;20556;-55
2022/06/21 10:33:57;;;;;;;14.23;5.18;;;;;;;30.87;55.81;101469.91;4973653;28;20110;-54
2022/06/21 10:36:28;;;;;;;12.68;7.07;;;;;;;31.14;53.12;101482.66;4973832;28;20106;-56
2022/06/21 10:39:19;;;;;;;10.02;3.83;;;;;;;31.94;51.81;101477.25;4973427;28;20039;-51
2022/06/21 10:45:12;;;;;;;12.13;6.07;;;;;;;33.06;46.15;101486.75;4968171;28;20043;-56
2022/06/21 10:48:05;;;;;;;4.22;0.82;;;;;;;33.37;45.22;101485.56;4969853;28;20036;-57
2022/06/21 10:50:49;;;;;;;6.70;2.92;;;;;;;32.35;47.77;101481.47;4972753;28;20099;-56
2022/06/21 10:53:39;;;;;;;8.77;3.00;;;;;;;32.04;48.16;101480.50;4970288;28;20047;-53
2022/06/21 11:01:16;;;;;;;7.32;2.80;;;;;;;30.47;49.77;101474.25;4977105;28;20103;-50
2022/06/21 11:02:34;;;;;;;5.88;1.70;;;;;;;30.73;49.37;101478.28;4971407;28;20064;-53
2022/06/21 11:05:13;;;;;;;4.50;1.48;;;;;;;31.35;45.95;101484.84;4973752;28;20038;-55
2022/06/21 11:07:58;;;;;;;5.35;1.48;;;;;;;32.32;44.64;101482.91;4970885;28;20042;-56
2022/06/21 11:10:31;;;;;;;5.30;1.95;;;;;;;33.14;43.12;101486.69;4968182;28;20032;-55
2022/06/21 11:13:04;;;;;;;6.00;1.13;;;;;;;33.00;41.73;101488.88;4972221;28;20035;-52
2022/06/21 11:15:52;;;;;;;6.15;1.85;;;;;;;31.96;43.75;101486.03;4965340;28;20054;-51
2022/06/21 11:18:25;;;;;;;4.97;2.30;;;;;;;33.07;41.88;101483.63;4975252;28;20098;-53
2022/06/21 11:21:24;;;;;;;12.35;5.82;;;;;;;33.40;40.55;101485.72;4971612;28;20034;-55
2022/06/21 11:24:13;;;;;;;6.50;3.47;;;;;;;34.18;37.34;101491.78;4976392;28;20034;-56
2022/06/21 11:26:52;;;;;;;5.38;1.70;;;;;;;34.26;35.64;101483.69;4973026;28;20046;-56
2022/06/21 11:29:29;;;;;;;6.32;2.28;;;;;;;34.96;33.60;101479.31;4968553;28;20870;-56
2022/06/21 11:32:03;;;;;;;3.10;1.20;;;;;;;34.94;32.29;101482.41;4967711;28;20051;-56
2022/06/21 11:34:41;;;;;;;6.72;3.42;;;;;;;35.06;32.87;101489.13;4972535;28;20027;-54
2022/06/21 11:37:36;;;;;;;11.93;4.18;;;;;;;34.50;31.31;101487.72;4973822;28;20031;-55
2022/06/21 11:40:17;;;;;;;2.90;1.10;;;;;;;33.69;34.05;101480.47;4976696;28;20039;-54
2022/06/21 11:42:50;;;;;;;7.93;3.92;;;;;;;33.63;34.73;101467.94;4972042;28;20031;-49
2022/06/21 11:45:55;;;;;;;3.10;1.05;;;;;;;33.38;33.90;101471.38;4973152;28;20035;-51
2022/06/21 11:48:41;;;;;;;6.35;3.55;;;;;;;32.86;35.86;101466.94;4971697;28;20042;-55
2022/06/21 11:51:09;;;;;;;8.90;2.55;;;;;;;32.75;36.42;101458.97;4972499;28;20052;-53
2022/06/21 11:53:44;;;;;;;10.68;3.63;;;;;;;32.61;37.16;101456.44;4973628;28;20027;-54
2022/06/21 11:56:25;;;;;;;6.03;2.80;;;;;;;32.45;37.60;101450.66;4974792;28;20038;-54
2022/06/21 11:59:01;;;;;;;5.70;2.28;;;;;;;31.57;37.06;101450.72;4974489;28;20035;-53
2022/06/21 12:01:56;;;;;;;9.80;3.67;;;;;;;31.27;36.66;101458.03;4966432;28;20046;-54
2022/06/21 12:04:48;;;;;;;4.03;1.80;;;;;;;30.84;38.07;101454.81;4968028;28;20051;-51
2022/06/21 12:07:21;;;;;;;6.57;1.90;;;;;;;30.56;39.61;101451.41;4970195;28;20062;-53
2022/06/21 12:10:00;;;;;;;10.70;3.88;;;;;;;30.41;42.87;101444.34;4971360;28;20035;-53
2022/06/21 12:12:57;;;;;;;10.23;3.72;;;;;;;30.27;44.24;101442.50;4968181;28;20043;-52